Data for 03/04/2010

Time Sea-Level Adjusted Pressure Absolute Pressure Temperature Relative Humidity Dew Point   
(mb) (inHg) (mb) (inHg) (C) (F) (%) (C) (F)
00:05 1013 29.91 842 24.86 1.9 35.5 62 -4.7 23.6
00:10 1012 29.88 842 24.86 1.9 35.4 62 -4.6 23.7
00:15 1012 29.88 842 24.86 1.8 35.2 63 -4.6 23.7
00:20 1013 29.91 842 24.86 1.7 35 63 -4.5 23.8
00:25 1013 29.91 842 24.86 1.5 34.7 63 -4.7 23.5
00:30 1012 29.88 842 24.86 1.7 35.1 62 -4.8 23.4
00:35 1012 29.88 842 24.86 1.8 35.2 62 -4.7 23.5
00:40 1012 29.88 842 24.86 1.7 35.1 62 -4.7 23.6
00:45 1012 29.88 842 24.86 1.7 35 62 -4.8 23.4
00:50 1012 29.88 842 24.86 1.3 34.4 64 -4.7 23.5
00:55 1012 29.88 842 24.86 1 33.8 65 -4.9 23.2
01:00 1013 29.91 842 24.86 1 33.7 65 -4.9 23.2
01:05 1013 29.91 842 24.86 1 33.8 65 -4.9 23.2
01:10 1013 29.91 842 24.86 1 33.8 65 -4.9 23.1
01:15 1013 29.91 842 24.86 1 33.8 64 -5 23
01:20 1013 29.91 842 24.86 1.1 34 64 -5 22.9
01:25 1013 29.91 842 24.86 1.1 34 63 -5.1 22.8
01:30 1013 29.91 842 24.86 1.3 34.3 63 -5.1 22.8
01:35 1013 29.91 842 24.86 1.2 34.1 63 -5.1 22.8
01:40 1013 29.91 842 24.86 1.2 34.2 62 -5.2 22.7
01:45 1013 29.91 842 24.86 1.4 34.4 61 -5.4 22.4
01:50 1013 29.91 842 24.86 1.4 34.4 61 -5.3 22.5
01:55 1013 29.91 842 24.86 1.2 34.2 60 -5.6 21.9
02:00 1013 29.91 842 24.86 1.1 34 60 -5.7 21.7
02:05 1013 29.91 842 24.86 1.1 34 61 -5.7 21.8
02:10 1013 29.91 842 24.86 1.1 34 60 -5.9 21.5
02:15 1013 29.91 842 24.86 1.4 34.5 59 -5.8 21.5
02:20 1013 29.91 842 24.86 1.4 34.4 58 -6 21.3
02:25 1013 29.91 842 24.86 1.4 34.5 60 -5.6 21.9
02:30 1013 29.91 842 24.86 1.1 34 61 -5.6 21.9
02:35 1013 29.91 842 24.86 1.2 34.1 61 -5.6 22
02:40 1013 29.91 842 24.86 0.7 33.2 63 -5.7 21.8
02:45 1013 29.91 842 24.86 0.6 33.2 62 -5.8 21.6
02:50 1013 29.91 842 24.86 0.7 33.2 63 -5.6 21.8
02:55 1013 29.91 842 24.86 0.4 32.8 63 -5.7 21.7
03:00 1013 29.91 842 24.86 0 32.1 63 -6.3 20.7
03:05 1013 29.91 842 24.86 0.1 32.2 64 -5.9 21.4
03:10 1013 29.91 842 24.86 0.3 32.5 63 -5.9 21.4
03:15 1012 29.88 842 24.86 0.3 32.6 64 -5.7 21.7
03:20 1012 29.88 842 24.86 0.2 32.3 64 -5.7 21.7
03:25 1012 29.88 842 24.86 0.5 32.9 63 -5.7 21.8
03:30 1012 29.88 842 24.86 0.4 32.7 63 -5.8 21.5
03:35 1012 29.88 842 24.86 0.3 32.6 62 -6.1 20.9
03:40 1012 29.88 842 24.86 -0 31.9 64 -6.1 21.1
03:45 1012 29.88 842 24.86 -0.6 31 65 -6.3 20.7
03:50 1012 29.88 842 24.86 -0.8 30.6 65 -6.5 20.4
03:55 1012 29.88 842 24.86 -0.8 30.6 65 -6.5 20.3
04:00 1012 29.88 842 24.86 -0.6 30.9 64 -6.6 20.1
04:05 1013 29.91 842 24.86 -0.6 30.9 65 -6.5 20.3
04:10 1013 29.91 842 24.86 -0.4 31.4 64 -6.4 20.4
04:15 1013 29.91 842 24.86 -0.4 31.3 64 -6.4 20.5
04:20 1013 29.91 842 24.86 -0.4 31.2 65 -6.2 20.8
04:25 1013 29.91 842 24.86 -0.5 31 64 -6.5 20.2
04:30 1013 29.91 842 24.86 -0.7 30.8 64 -6.6 20.1
04:35 1013 29.91 842 24.86 -0.5 31.1 64 -6.5 20.2
04:40 1013 29.91 842 24.86 -0.6 31 64 -6.5 20.3
04:45 1013 29.91 842 24.86 -0.7 30.7 66 -6.3 20.6
04:50 1013 29.91 842 24.86 -0.6 30.9 64 -6.5 20.3
04:55 1013 29.91 842 24.86 -1.1 30.1 66 -6.6 20.1
05:00 1013 29.91 842 24.86 -1.1 30 66 -6.6 20.1
05:05 1013 29.91 842 24.86 -0.8 30.6 65 -6.7 20
05:10 1013 29.91 842 24.86 -1 30.1 66 -6.6 20.1
05:15 1013 29.91 842 24.86 -1.2 29.8 66 -6.7 20
05:20 1013 29.91 842 24.86 -1.2 29.8 66 -6.8 19.8
05:25 1013 29.91 842 24.86 -1 30.2 65 -6.8 19.7
05:30 1013 29.91 842 24.86 -0.8 30.6 64 -6.7 19.9
05:35 1013 29.91 842 24.86 -0.7 30.8 64 -6.7 20
05:40 1013 29.91 842 24.86 -0.7 30.8 64 -6.6 20.1
05:45 1013 29.91 842 24.86 -0.7 30.8 65 -6.6 20.2
05:50 1013 29.91 842 24.86 -0.9 30.4 66 -6.5 20.2
05:55 1013 29.91 842 24.86 -0.8 30.5 65 -6.7 19.9
06:00 1013 29.91 842 24.86 -1 30.3 65 -6.7 20
06:05 1013 29.91 842 24.86 -0.8 30.5 64 -6.8 19.8
06:10 1013 29.91 842 24.86 -0 32 61 -6.6 20.2
06:15 1013 29.91 842 24.86 0.1 32.2 62 -6.3 20.7
06:20 1013 29.91 842 24.86 -0.3 31.4 63 -6.4 20.4
06:25 1013 29.91 842 24.86 0.3 32.6 61 -6.4 20.5
06:30 1013 29.91 842 24.86 0.7 33.2 59 -6.4 20.5
06:35 1013 29.91 842 24.86 0.4 32.7 60 -6.5 20.4
06:40 1013 29.91 842 24.86 -0.6 30.9 65 -6.3 20.6
06:45 1013 29.91 842 24.86 -1.2 29.8 65 -6.9 19.5
06:50 1013 29.91 842 24.86 -0.9 30.4 65 -6.7 20
06:55 1013 29.91 842 24.86 -1.1 30 66 -6.6 20.1
07:00 1013 29.91 842 24.86 -1.3 29.6 67 -6.7 20
07:05 1013 29.91 842 24.86 -1.5 29.3 69 -6.5 20.2
07:10 1013 29.91 842 24.86 -1.6 29.1 69 -6.6 20.2
07:15 1013 29.91 842 24.86 -1.7 29 69 -6.7 19.9
07:20 1013 29.91 842 24.86 -1.7 29 68 -6.8 19.7
07:25 1013 29.91 842 24.86 -1.5 29.4 66 -7 19.4
07:30 1013 29.91 842 24.86 -1.4 29.5 66 -6.9 19.5
07:35 1013 29.91 842 24.86 -1.4 29.5 66 -7 19.4
07:40 1013 29.91 842 24.86 -1.2 29.8 66 -6.8 19.7
07:45 1013 29.91 842 24.86 -0.9 30.4 63 -7 19.4
07:50 1013 29.91 842 24.86 -0.4 31.3 63 -6.5 20.2
07:55 1013 29.91 842 24.86 -0.1 31.8 62 -6.5 20.4
08:00 1013 29.91 842 24.86 -0 31.9 62 -6.5 20.3
08:05 1013 29.91 842 24.86 0.1 32.1 62 -6.3 20.6
08:10 1013 29.91 842 24.86 0.5 32.9 60 -6.4 20.5
08:15 1013 29.91 842 24.86 0.8 33.4 59 -6.4 20.6
08:20 1013 29.91 842 24.86 0.5 33 60 -6.3 20.7
08:25 1013 29.91 842 24.86 0.9 33.6 59 -6.3 20.6
08:30 1013 29.91 842 24.86 1.3 34.3 58 -6 21.2
08:35 1013 29.91 842 24.86 1.7 35.1 57 -6 21.1
08:40 1013 29.91 842 24.86 2 35.6 56 -5.8 21.5
08:45 1013 29.91 842 24.86 2.2 36 54 -6 21.1
08:50 1013 29.91 842 24.86 2.3 36.2 56 -5.5 22.1
08:55 1013 29.91 842 24.86 2.4 36.4 54 -5.9 21.4
09:00 1013 29.91 842 24.86 2.9 37.2 52 -6.1 21.1
09:05 1013 29.91 842 24.86 3.3 38 50 -6.1 21
09:10 1013 29.91 842 24.86 3.5 38.3 50 -5.9 21.4
09:15 1013 29.91 842 24.86 3.5 38.2 50 -5.9 21.3
09:20 1013 29.91 842 24.86 3.4 38.1 52 -5.6 21.9
09:25 1013 29.91 842 24.86 3.6 38.4 51 -5.7 21.8
09:30 1013 29.91 842 24.86 4 39.2 52 -5 23
09:35 1013 29.91 842 24.86 4.5 40 53 -4.3 24.2
09:40 1013 29.91 842 24.86 4.4 39.8 51 -4.9 23.1
09:45 1013 29.91 842 24.86 4.5 40 52 -4.5 23.9
09:50 1013 29.91 842 24.86 4.6 40.4 50 -5 23
09:55 1013 29.91 842 24.86 4.6 40.3 50 -5 23
10:00 1013 29.91 842 24.86 4.5 40.1 49 -5.2 22.6
10:05 1013 29.91 842 24.86 4.7 40.5 48 -5.3 22.4
10:10 1013 29.91 842 24.86 5.2 41.3 49 -4.7 23.5
10:15 1012 29.88 842 24.86 5.2 41.4 50 -4.4 24
10:20 1012 29.88 842 24.86 5.8 42.4 45 -5.2 22.6
10:25 1012 29.88 842 24.86 6.1 43 46 -4.6 23.7
10:30 1012 29.88 842 24.86 6.4 43.5 46 -4.5 23.9
10:35 1012 29.88 842 24.86 5.4 41.7 49 -4.5 23.8
10:40 1012 29.88 842 24.86 5.9 42.7 43 -5.6 22
10:45 1012 29.88 842 24.86 7.3 45.1 42 -4.8 23.3
10:50 1012 29.88 841 24.83 6.7 44 46 -4.2 24.4
10:55 1012 29.88 841 24.83 7.1 44.8 46 -3.7 25.4
11:00 1012 29.88 841 24.83 7.2 45 43 -4.5 24
11:05 1012 29.88 841 24.83 6.9 44.5 44 -4.5 23.9
11:10 1012 29.88 841 24.83 6.7 44 44 -4.7 23.6
11:15 1012 29.88 841 24.83 6.8 44.3 47 -3.7 25.3
11:20 1012 29.88 841 24.83 6.6 43.9 46 -4.2 24.5
11:25 1012 29.88 841 24.83 6.7 44.1 46 -4.1 24.5
11:30 1012 29.88 841 24.83 6.8 44.2 45 -4.3 24.3
11:35 1012 29.88 841 24.83 6.4 43.5 47 -4 24.8
11:40 1012 29.88 841 24.83 5.7 42.2 50 -3.9 25
11:45 1012 29.88 841 24.83 5.7 42.2 50 -3.9 24.9
11:50 1012 29.88 841 24.83 5.3 41.6 51 -4 24.8
11:55 1012 29.88 841 24.83 5.8 42.5 47 -4.5 23.8
12:00 1012 29.88 841 24.83 5.3 41.6 53 -3.6 25.6
12:05 1012 29.88 841 24.83 4.8 40.6 52 -4.4 24.1
12:10 1012 29.88 841 24.83 5.9 42.6 50 -3.9 25
12:15 1012 29.88 841 24.83 6.3 43.3 47 -4.1 24.7
12:20 1012 29.88 841 24.83 4.7 40.5 56 -3.4 25.9
12:25 1012 29.88 841 24.83 4.5 40.2 54 -3.9 25.1
12:30 1012 29.88 841 24.83 5.1 41.1 51 -4.3 24.3
12:35 1012 29.88 841 24.83 4.5 40.2 55 -3.7 25.3
12:40 1012 29.88 841 24.83 4.9 40.7 51 -4.4 24
12:45 1012 29.88 841 24.83 5.8 42.5 50 -3.7 25.4
12:50 1012 29.88 841 24.83 6.6 43.8 49 -3.5 25.7
12:55 1012 29.88 841 24.83 6.6 43.9 49 -3.2 26.2
13:00 1012 29.88 841 24.83 6 42.7 50 -3.5 25.7
13:05 1012 29.88 841 24.83 6.1 42.9 50 -3.5 25.7
13:10 1012 29.88 841 24.83 6.5 43.8 48 -3.7 25.3
13:15 1012 29.88 841 24.83 6.7 44 47 -3.8 25.2
13:20 1012 29.88 841 24.83 6.5 43.7 48 -3.8 25.1
13:25 1012 29.88 841 24.83 6.4 43.6 50 -3.3 26
13:30 1011 29.85 841 24.83 6.8 44.2 47 -3.9 25.1
13:35 1011 29.85 841 24.83 6.3 43.4 53 -2.6 27.4
13:40 1011 29.85 841 24.83 6 42.8 50 -3.5 25.6
13:45 1011 29.85 841 24.83 6.3 43.3 49 -3.6 25.6
13:50 1011 29.85 841 24.83 6.1 43 50 -3.6 25.5
13:55 1011 29.85 841 24.83 6.1 42.9 50 -3.6 25.6
14:00 1011 29.85 840 24.81 6.2 43.2 49 -3.7 25.4
14:05 1011 29.85 840 24.81 6.4 43.5 50 -3.3 26
14:10 1011 29.85 840 24.81 6.6 43.8 48 -3.6 25.4
14:15 1011 29.85 840 24.81 6.9 44.5 49 -3.1 26.3
14:20 1011 29.85 840 24.81 6.9 44.5 48 -3.4 25.9
14:25 1011 29.85 840 24.81 6.5 43.7 52 -2.7 27.1
14:30 1011 29.85 840 24.81 6.8 44.2 49 -3.1 26.5
14:35 1011 29.85 840 24.81 7.2 44.9 46 -3.5 25.6
14:40 1011 29.85 840 24.81 6.3 43.3 50 -3.3 26.1
14:45 1011 29.85 840 24.81 6.1 42.9 51 -3.4 25.9
14:50 1011 29.85 840 24.81 5.2 41.4 54 -3.3 26.1
14:55 1011 29.85 840 24.81 4.8 40.7 55 -3.5 25.6
15:00 1011 29.85 840 24.81 4.5 40.2 55 -3.7 25.4
15:05 1011 29.85 840 24.81 4.4 39.9 55 -3.8 25.2
15:10 1011 29.85 840 24.81 4.4 40 56 -3.6 25.5
15:15 1011 29.85 840 24.81 4.5 40.1 54 -3.9 25
15:20 1011 29.85 840 24.81 4.4 40 54 -4.1 24.6
15:25 1011 29.85 840 24.81 4.7 40.5 53 -4.2 24.5
15:30 1011 29.85 840 24.81 4.7 40.5 54 -3.9 25
15:35 1011 29.85 840 24.81 4.6 40.2 53 -4.2 24.4
15:40 1011 29.85 840 24.81 4.9 40.7 52 -4.2 24.4
15:45 1011 29.85 840 24.81 5.7 42.2 49 -4.3 24.3
15:50 1011 29.85 840 24.81 5.8 42.4 50 -3.9 24.9
15:55 1011 29.85 840 24.81 5.4 41.8 50 -4 24.8
16:00 1011 29.85 840 24.81 5.3 41.6 50 -4.2 24.4
16:05 1011 29.85 840 24.81 5.6 42.1 50 -3.9 24.9
16:10 1011 29.85 840 24.81 5.5 41.8 51 -3.7 25.3
16:15 1011 29.85 840 24.81 5.3 41.5 51 -3.9 24.9
16:20 1011 29.85 840 24.81 5.6 42.1 51 -3.8 25.1
16:25 1011 29.85 840 24.81 5.6 42.1 49 -4.2 24.5
16:30 1011 29.85 840 24.81 5.6 42.1 49 -4.2 24.5
16:35 1011 29.85 840 24.81 5.2 41.4 51 -4.1 24.6
16:40 1011 29.85 840 24.81 5 41.1 50 -4.4 24
16:45 1011 29.85 840 24.81 5.3 41.5 50 -4.4 24.1
16:50 1011 29.85 840 24.81 5.4 41.6 49 -4.5 23.8
16:55 1011 29.85 840 24.81 5.4 41.7 49 -4.6 23.8
17:00 1011 29.85 840 24.81 5.1 41.2 50 -4.4 24.2
17:05 1011 29.85 840 24.81 5.1 41.2 49 -4.8 23.4
17:10 1011 29.85 840 24.81 5 41.1 50 -4.5 24
17:15 1011 29.85 840 24.81 5 41.1 50 -4.6 23.7
17:20 1011 29.85 840 24.81 5.3 41.6 48 -4.8 23.3
17:25 1011 29.85 840 24.81 5.5 41.8 47 -4.8 23.3
17:30 1011 29.85 840 24.81 5.2 41.4 48 -4.9 23.1
17:35 1011 29.85 840 24.81 5 41 49 -4.8 23.4
17:40 1011 29.85 840 24.81 4.8 40.7 48 -5.2 22.6
17:45 1011 29.85 840 24.81 4.7 40.5 51 -4.7 23.6
17:50 1011 29.85 840 24.81 4.7 40.5 50 -4.8 23.4
17:55 1011 29.85 840 24.81 4.8 40.6 51 -4.6 23.6
18:00 1011 29.85 840 24.81 4.9 40.8 51 -4.4 24.1
18:05 1011 29.85 840 24.81 5.1 41.1 51 -4.1 24.6
18:10 1011 29.85 840 24.81 5.1 41.1 51 -4.1 24.6
18:15 1011 29.85 840 24.81 4.9 40.8 51 -4.3 24.3
18:20 1011 29.85 840 24.81 4.7 40.4 53 -4.1 24.7
18:25 1011 29.85 840 24.81 4.5 40 55 -3.9 25
18:30 1011 29.85 840 24.81 4.2 39.6 56 -3.8 25.2
18:35 1011 29.85 841 24.83 4.1 39.3 56 -3.8 25.1
18:40 1011 29.85 841 24.83 4 39.2 57 -3.8 25.2
18:45 1011 29.85 841 24.83 3.9 39 58 -3.6 25.6
18:50 1011 29.85 841 24.83 3.7 38.7 58 -3.7 25.4
18:55 1011 29.85 841 24.83 3.6 38.5 58 -3.8 25.1
19:00 1011 29.85 841 24.83 3.5 38.4 59 -3.8 25.2
19:05 1012 29.88 841 24.83 3.4 38.1 59 -3.8 25.2
19:10 1012 29.88 841 24.83 3.3 37.9 60 -3.7 25.3
19:15 1012 29.88 841 24.83 3.2 37.8 60 -3.7 25.3
19:20 1012 29.88 841 24.83 3.2 37.8 60 -3.7 25.4
19:25 1012 29.88 841 24.83 3.2 37.8 62 -3.4 25.9
19:30 1012 29.88 841 24.83 3.2 37.7 61 -3.5 25.7
19:35 1012 29.88 841 24.83 3.2 37.7 62 -3.4 25.8
19:40 1012 29.88 841 24.83 3.1 37.5 63 -3.3 26
19:45 1012 29.88 841 24.83 3 37.4 64 -3.2 26.3
19:50 1012 29.88 841 24.83 3 37.3 62 -3.6 25.6
19:55 1012 29.88 841 24.83 3.1 37.5 63 -3.3 26.1
20:00 1012 29.88 841 24.83 3 37.4 64 -3.2 26.2
20:05 1012 29.88 841 24.83 2.9 37.2 65 -3.1 26.5
20:10 1012 29.88 841 24.83 2.8 37 65 -3.2 26.2
20:15 1012 29.88 841 24.83 2.9 37.2 65 -3.1 26.4
20:20 1012 29.88 841 24.83 2.9 37.3 62 -3.6 25.5
20:25 1012 29.88 841 24.83 3.1 37.6 63 -3.2 26.2
20:30 1012 29.88 841 24.83 3 37.4 63 -3.2 26.2
20:35 1012 29.88 841 24.83 2.9 37.3 63 -3.3 26
20:40 1012 29.88 841 24.83 2.8 37.1 64 -3.4 25.9
20:45 1012 29.88 841 24.83 3 37.3 63 -3.5 25.8
20:50 1012 29.88 841 24.83 3 37.4 63 -3.4 25.8
20:55 1012 29.88 841 24.83 3.1 37.5 63 -3.3 26.1
21:00 1012 29.88 841 24.83 2.9 37.1 64 -3.3 26.1
21:05 1012 29.88 841 24.83 3 37.4 63 -3.4 25.8
21:10 1012 29.88 841 24.83 2.9 37.3 63 -3.3 26
21:15 1012 29.88 841 24.83 2.7 36.9 65 -3.2 26.2
21:20 1012 29.88 841 24.83 2.7 36.9 63 -3.7 25.3
21:25 1012 29.88 841 24.83 3.1 37.6 63 -3.2 26.2
21:30 1012 29.88 841 24.83 2.8 37 65 -3.1 26.4
21:35 1012 29.88 841 24.83 2.7 36.9 66 -3.1 26.5
21:40 1012 29.88 841 24.83 2.5 36.5 67 -3 26.7
21:45 1012 29.88 841 24.83 2.4 36.4 66 -3.4 26
21:50 1012 29.88 841 24.83 2.6 36.7 67 -3 26.6
21:55 1012 29.88 841 24.83 2.4 36.3 67 -3.1 26.5
22:00 1012 29.88 841 24.83 2.6 36.7 65 -3.4 25.8
22:05 1012 29.88 841 24.83 2.6 36.6 68 -2.8 27
22:10 1012 29.88 841 24.83 2.2 36 68 -3.1 26.5
22:15 1012 29.88 841 24.83 2.2 36 67 -3.2 26.2
22:20 1012 29.88 841 24.83 2.2 36 67 -3.3 26
22:25 1012 29.88 841 24.83 2.4 36.3 67 -3.1 26.4
22:30 1012 29.88 841 24.83 2.4 36.3 67 -3.2 26.3
22:35 1012 29.88 841 24.83 2.5 36.6 66 -3.2 26.3
22:40 1012 29.88 841 24.83 2.4 36.3 66 -3.2 26.2
22:45 1012 29.88 841 24.83 2.5 36.4 65 -3.3 26
22:50 1012 29.88 841 24.83 2.7 36.9 65 -3.2 26.2
22:55 1012 29.88 841 24.83 2.8 37.1 64 -3.3 26
23:00 1012 29.88 841 24.83 3 37.4 64 -3.1 26.4
23:05 1012 29.88 841 24.83 2.9 37.2 65 -3.1 26.4
23:10 1012 29.88 841 24.83 2.8 37.1 64 -3.4 25.9
23:15 1012 29.88 841 24.83 3.1 37.5 64 -3.1 26.5
23:20 1012 29.88 841 24.83 3 37.5 64 -3.1 26.5
23:25 1012 29.88 841 24.83 2.9 37.2 65 -3 26.5
23:30 1012 29.88 841 24.83 3 37.3 64 -3.1 26.4
23:35 1012 29.88 841 24.83 2.9 37.1 65 -3.1 26.5
23:40 1012 29.88 841 24.83 2.6 36.7 66 -3.2 26.3
23:45 1012 29.88 841 24.83 2.5 36.5 68 -2.9 26.8
23:50 1012 29.88 841 24.83 2.4 36.4 67 -3.1 26.4
23:55 1012 29.88 841 24.83 2.3 36.1 67 -3.1 26.4
24:00 1012 29.88 841 24.83 2.2 35.9 68 -3.1 26.4